createdAt,value
2019-03-10T00:00:35.031Z,11.30
2019-03-10T00:03:07.090Z,11.31
2019-03-10T00:05:38.662Z,11.26
2019-03-10T00:08:10.251Z,11.32
2019-03-10T00:10:41.828Z,11.35
2019-03-10T00:13:13.420Z,11.33
2019-03-10T00:15:45.016Z,11.38
2019-03-10T00:18:19.412Z,11.45
2019-03-10T00:20:50.994Z,11.43
2019-03-10T00:23:22.571Z,11.47
2019-03-10T00:25:54.141Z,11.48
2019-03-10T00:28:25.703Z,11.55
2019-03-10T00:30:57.291Z,11.56
2019-03-10T00:33:28.954Z,11.52
2019-03-10T00:36:00.532Z,11.39
2019-03-10T00:39:10.606Z,11.28
2019-03-10T00:42:29.790Z,11.20
2019-03-10T00:45:54.845Z,11.12
2019-03-10T00:49:37.621Z,11.09
2019-03-10T00:52:31.951Z,11.06
2019-03-10T00:55:04.469Z,10.98
2019-03-10T00:57:36.033Z,11.00
2019-03-10T01:00:15.197Z,10.99
2019-03-10T01:02:46.763Z,11.03
2019-03-10T01:05:20.364Z,11.01
2019-03-10T01:07:51.927Z,10.96
2019-03-10T01:10:23.492Z,11.01
2019-03-10T01:12:55.296Z,11.03
2019-03-10T01:15:27.250Z,11.01
2019-03-10T01:18:00.445Z,10.98
2019-03-10T01:20:32.285Z,10.95
2019-03-10T01:23:03.881Z,10.91
2019-03-10T01:25:35.446Z,10.93
2019-03-10T01:28:07.013Z,10.93
2019-03-10T01:31:06.526Z,10.94
2019-03-10T01:34:26.159Z,10.95
2019-03-10T01:36:57.702Z,10.95
2019-03-10T01:39:29.288Z,10.97
2019-03-10T01:42:00.835Z,10.95
2019-03-10T01:44:32.415Z,10.98
2019-03-10T01:47:03.969Z,11.04
2019-03-10T01:49:35.605Z,11.06
2019-03-10T01:52:07.188Z,11.02
2019-03-10T01:54:40.355Z,11.05
2019-03-10T01:57:11.892Z,11.09
2019-03-10T01:59:43.471Z,11.15
2019-03-10T02:02:15.040Z,11.25
2019-03-10T02:04:49.453Z,11.28
2019-03-10T02:07:21.011Z,11.33
2019-03-10T02:09:52.695Z,11.34
2019-03-10T02:12:24.264Z,11.37
2019-03-10T02:14:55.806Z,11.47
2019-03-10T02:17:27.375Z,11.49
2019-03-10T02:19:58.936Z,11.50
2019-03-10T02:22:32.073Z,11.51
2019-03-10T02:25:03.629Z,11.49
2019-03-10T02:27:35.181Z,11.55
2019-03-10T02:30:08.425Z,11.53
2019-03-10T02:32:39.987Z,11.57
2019-03-10T02:35:11.595Z,11.62
2019-03-10T02:37:44.614Z,11.68
2019-03-10T02:40:16.193Z,11.69
2019-03-10T02:42:47.749Z,11.70
2019-03-10T02:45:19.300Z,11.72
2019-03-10T02:47:50.864Z,11.68
2019-03-10T02:50:22.469Z,11.69
2019-03-10T02:52:54.001Z,11.65
2019-03-10T02:55:25.568Z,11.64
2019-03-10T02:57:57.169Z,11.59
2019-03-10T03:00:28.699Z,11.53
2019-03-10T03:03:00.273Z,11.54
2019-03-10T03:05:31.819Z,11.51
2019-03-10T03:08:04.366Z,11.56
2019-03-10T03:10:35.916Z,11.58
2019-03-10T03:13:07.472Z,11.58
2019-03-10T03:15:41.527Z,11.59
2019-03-10T03:18:13.097Z,11.59
2019-03-10T03:20:44.653Z,11.60
2019-03-10T03:23:16.218Z,11.63
2019-03-10T03:25:47.781Z,11.64
2019-03-10T03:28:19.333Z,11.63
2019-03-10T03:30:50.901Z,11.64
2019-03-10T03:33:22.639Z,11.64
2019-03-10T03:36:28.367Z,11.64
2019-03-10T03:39:31.689Z,11.68
2019-03-10T03:42:03.248Z,11.70
2019-03-10T03:44:34.805Z,11.71
2019-03-10T03:47:06.384Z,11.68
2019-03-10T03:49:37.992Z,11.62
2019-03-10T03:52:09.557Z,11.16
2019-03-10T03:54:43.865Z,10.89
2019-03-10T03:57:15.418Z,10.87
2019-03-10T03:59:50.113Z,10.82
2019-03-10T04:02:49.365Z,10.86
2019-03-10T04:05:20.926Z,10.66
2019-03-10T04:07:52.491Z,10.52
2019-03-10T04:10:24.070Z,10.48
2019-03-10T04:12:55.633Z,10.49
2019-03-10T04:15:27.187Z,10.50
2019-03-10T04:18:00.417Z,10.36
2019-03-10T04:20:31.997Z,10.32
2019-03-10T04:23:03.548Z,10.23
2019-03-10T04:25:35.146Z,10.23
2019-03-10T04:28:06.702Z,10.22
2019-03-10T04:30:40.335Z,10.17
2019-03-10T04:33:11.879Z,10.23
2019-03-10T04:35:43.463Z,10.22
2019-03-10T04:38:15.017Z,10.20
2019-03-10T04:40:49.330Z,10.14
2019-03-10T04:43:20.896Z,10.13
2019-03-10T04:45:52.465Z,10.07
2019-03-10T04:48:24.022Z,10.03
2019-03-10T04:50:55.607Z,10.07
2019-03-10T04:53:27.149Z,10.08
2019-03-10T04:56:04.092Z,10.05
2019-03-10T04:58:38.735Z,10.13
2019-03-10T05:01:10.316Z,10.15
2019-03-10T05:03:41.881Z,10.19
2019-03-10T05:06:13.436Z,10.20
2019-03-10T05:08:45.000Z,10.23
2019-03-10T05:11:16.553Z,10.21
2019-03-10T05:13:51.125Z,10.21
2019-03-10T05:16:22.679Z,10.19
2019-03-10T05:18:54.236Z,10.22
2019-03-10T05:21:25.794Z,10.16
2019-03-10T05:23:59.848Z,10.14
2019-03-10T05:26:32.759Z,10.14
2019-03-10T05:29:04.321Z,10.12
2019-03-10T05:31:35.877Z,10.16
2019-03-10T05:34:07.473Z,10.19
2019-03-10T05:36:39.016Z,10.21
2019-03-10T05:39:10.581Z,10.17
2019-03-10T05:41:42.114Z,10.19
2019-03-10T05:44:13.678Z,10.18
2019-03-10T05:46:45.325Z,10.21
2019-03-10T05:49:16.895Z,10.15
2019-03-10T05:51:48.547Z,10.04
2019-03-10T05:54:20.106Z,10.03
2019-03-10T05:56:51.679Z,10.09
2019-03-10T05:59:23.221Z,10.04
2019-03-10T06:01:54.862Z,9.92
2019-03-10T06:04:26.396Z,9.95
2019-03-10T06:06:57.962Z,9.94
2019-03-10T06:09:29.501Z,9.92
2019-03-10T06:12:02.264Z,9.96
2019-03-10T06:14:33.868Z,9.90
2019-03-10T06:17:05.444Z,9.88
2019-03-10T06:19:37.000Z,9.76
2019-03-10T06:22:08.586Z,9.85
2019-03-10T06:24:40.132Z,9.72
2019-03-10T06:27:11.735Z,9.70
2019-03-10T06:29:44.866Z,9.73
2019-03-10T06:32:18.097Z,9.74
2019-03-10T06:34:49.767Z,9.72
2019-03-10T06:37:26.038Z,9.78
2019-03-10T06:39:57.706Z,9.84
2019-03-10T06:42:32.625Z,9.89
2019-03-10T06:45:05.372Z,9.93
2019-03-10T06:47:36.927Z,9.93
2019-03-10T06:50:09.388Z,9.96
2019-03-10T06:52:40.969Z,9.92
2019-03-10T06:55:12.603Z,9.87
2019-03-10T06:57:44.162Z,9.90
2019-03-10T07:00:17.674Z,9.96
2019-03-10T07:02:49.387Z,10.02
2019-03-10T07:05:20.956Z,10.06
2019-03-10T07:07:54.120Z,10.07
2019-03-10T07:10:25.690Z,10.12
2019-03-10T07:12:57.237Z,10.11
2019-03-10T07:15:30.316Z,10.18
2019-03-10T07:18:01.907Z,10.23
2019-03-10T07:20:34.597Z,10.28
2019-03-10T07:23:08.428Z,10.32
2019-03-10T07:25:41.315Z,10.39
2019-03-10T07:28:33.773Z,10.44
2019-03-10T07:31:16.868Z,10.47
2019-03-10T07:34:00.532Z,10.58
2019-03-10T07:36:58.095Z,10.61
2019-03-10T07:39:45.788Z,10.61
2019-03-10T07:42:29.909Z,10.69
2019-03-10T07:45:20.457Z,10.68
2019-03-10T07:48:09.749Z,10.73
2019-03-10T07:51:00.193Z,10.68
2019-03-10T07:54:09.037Z,10.69
2019-03-10T07:57:08.534Z,10.68
2019-03-10T07:59:54.746Z,10.67
2019-03-10T08:03:06.227Z,10.60
2019-03-10T08:05:58.309Z,10.58
2019-03-10T08:08:46.268Z,10.59
2019-03-10T08:11:39.492Z,10.64
2019-03-10T08:14:32.954Z,10.69
2019-03-10T08:17:24.591Z,10.74
2019-03-10T08:20:07.705Z,10.80
2019-03-10T08:23:13.243Z,10.83
2019-03-10T08:26:00.922Z,10.89
2019-03-10T08:28:54.397Z,10.92
2019-03-10T08:31:35.064Z,10.97
2019-03-10T08:34:28.442Z,11.04
2019-03-10T08:37:28.287Z,11.11
2019-03-10T08:40:22.997Z,11.11
2019-03-10T08:43:24.973Z,11.13
2019-03-10T08:46:15.416Z,11.16
2019-03-10T08:49:02.649Z,11.22
2019-03-10T08:51:53.101Z,11.26
2019-03-10T08:54:31.754Z,11.32
2019-03-10T08:57:31.576Z,11.31
2019-03-10T09:00:37.407Z,11.35
2019-03-10T09:03:16.741Z,11.39
2019-03-10T09:06:09.881Z,11.38
2019-03-10T09:09:01.089Z,11.43
2019-03-10T09:11:53.290Z,11.48
2019-03-10T09:14:43.724Z,11.54
2019-03-10T09:17:46.309Z,11.59
2019-03-10T09:20:42.580Z,11.64
2019-03-10T09:23:45.422Z,11.68
2019-03-10T09:26:36.217Z,11.74
2019-03-10T09:29:38.565Z,11.78
2019-03-10T09:32:28.978Z,11.86
2019-03-10T09:35:17.936Z,11.87
2019-03-10T09:37:55.966Z,11.96
2019-03-10T09:40:49.178Z,11.95
2019-03-10T09:43:30.792Z,12.02
2019-03-10T09:46:09.764Z,12.01
2019-03-10T09:48:58.879Z,12.09
2019-03-10T09:51:40.584Z,12.11
2019-03-10T09:54:32.488Z,12.11
2019-03-10T09:57:21.866Z,12.10
2019-03-10T10:00:06.751Z,12.13
2019-03-10T10:02:55.919Z,12.14
2019-03-10T10:05:51.354Z,12.14
2019-03-10T10:08:47.960Z,12.21
2019-03-10T10:11:41.521Z,12.29
2019-03-10T10:14:29.042Z,12.27
2019-03-10T10:17:12.785Z,12.33
2019-03-10T10:20:03.274Z,12.36
2019-03-10T10:22:54.328Z,12.42
2019-03-10T10:25:40.938Z,12.44
2019-03-10T10:28:21.753Z,12.51
2019-03-10T10:31:14.067Z,12.58
2019-03-10T10:34:10.735Z,12.62
2019-03-10T10:37:01.212Z,12.66
2019-03-10T10:39:49.200Z,12.79
2019-03-10T10:42:39.346Z,12.93
2019-03-10T10:45:36.980Z,13.01
2019-03-10T10:48:36.576Z,13.01
2019-03-10T10:51:20.607Z,12.97
2019-03-10T10:54:17.138Z,13.00
2019-03-10T10:57:19.879Z,13.03
2019-03-10T11:00:16.452Z,13.03
2019-03-10T11:03:07.826Z,13.06
2019-03-10T11:06:10.563Z,13.07
2019-03-10T11:08:59.623Z,13.02
2019-03-10T11:11:46.346Z,13.09
2019-03-10T11:14:39.718Z,13.18
2019-03-10T11:17:31.556Z,13.25
2019-03-10T11:20:20.684Z,13.33
2019-03-10T11:23:14.453Z,13.65
2019-03-10T11:26:00.897Z,13.91
2019-03-10T11:28:54.090Z,14.08
2019-03-10T11:31:38.095Z,14.22
2019-03-10T11:34:19.817Z,14.25
2019-03-10T11:37:08.757Z,14.39
2019-03-10T11:39:47.266Z,14.49
2019-03-10T11:42:36.367Z,14.51
2019-03-10T11:45:30.643Z,14.57
2019-03-10T11:48:13.491Z,14.51
2019-03-10T11:50:57.757Z,14.55
2019-03-10T11:53:44.964Z,14.62
2019-03-10T11:56:25.626Z,14.62
2019-03-10T11:59:10.129Z,14.78
2019-03-10T12:02:15.231Z,14.92
2019-03-10T12:05:08.815Z,14.94
2019-03-10T12:08:05.604Z,15.00
2019-03-10T12:10:37.248Z,14.97
2019-03-10T12:13:08.939Z,14.93
2019-03-10T12:15:40.536Z,14.97
2019-03-10T12:18:12.357Z,14.99
2019-03-10T12:20:47.102Z,15.07
2019-03-10T12:23:19.000Z,15.20
2019-03-10T12:25:50.615Z,15.45
2019-03-10T12:28:22.223Z,15.58
2019-03-10T12:30:53.806Z,15.64
2019-03-10T12:33:25.458Z,15.63
2019-03-10T12:35:57.288Z,15.66
2019-03-10T12:38:28.887Z,15.73
2019-03-10T12:41:00.465Z,15.69
2019-03-10T12:43:32.050Z,15.71
2019-03-10T12:46:03.641Z,15.69
2019-03-10T12:48:35.286Z,15.70
2019-03-10T12:51:06.964Z,15.73
2019-03-10T12:53:38.555Z,15.83
2019-03-10T12:56:10.143Z,15.90
2019-03-10T12:58:41.721Z,15.93
2019-03-10T13:01:13.320Z,15.83
2019-03-10T13:03:44.981Z,15.83
2019-03-10T13:06:16.656Z,15.83
2019-03-10T13:08:48.289Z,15.68
2019-03-10T13:11:19.912Z,15.68
2019-03-10T13:13:51.556Z,15.53
2019-03-10T13:16:23.142Z,15.44
2019-03-10T13:18:54.786Z,15.39
2019-03-10T13:21:26.472Z,15.23
2019-03-10T13:23:58.051Z,15.18
2019-03-10T13:26:32.165Z,15.06
2019-03-10T13:29:05.539Z,15.24
2019-03-10T13:31:38.217Z,15.52
2019-03-10T13:34:09.842Z,15.59
2019-03-10T13:36:41.475Z,15.58
2019-03-10T13:39:13.244Z,15.44
2019-03-10T13:41:45.366Z,15.42
2019-03-10T13:44:16.932Z,15.54
2019-03-10T13:46:48.713Z,15.61
2019-03-10T13:49:20.297Z,15.63
2019-03-10T13:51:51.975Z,15.59
2019-03-10T13:54:23.736Z,15.55
2019-03-10T13:56:58.468Z,15.52
2019-03-10T13:59:35.843Z,15.54
2019-03-10T14:02:07.562Z,15.75
2019-03-10T14:04:39.492Z,15.71
2019-03-10T14:07:19.098Z,15.71
2019-03-10T14:09:50.837Z,15.61
2019-03-10T14:12:22.446Z,15.71
2019-03-10T14:14:54.134Z,15.87
2019-03-10T14:17:25.736Z,15.83
2019-03-10T14:19:58.521Z,15.90
2019-03-10T14:22:31.487Z,15.94
2019-03-10T14:25:03.085Z,15.77
2019-03-10T14:27:34.768Z,15.68
2019-03-10T14:30:08.682Z,15.47
2019-03-10T14:32:43.402Z,15.47
2019-03-10T14:35:15.554Z,15.43
2019-03-10T14:37:47.183Z,15.38
2019-03-10T14:40:18.932Z,15.37
2019-03-10T14:42:50.620Z,15.39
2019-03-10T14:45:22.373Z,15.43
2019-03-10T14:47:54.267Z,15.36
2019-03-10T14:50:25.859Z,15.39
2019-03-10T14:52:57.562Z,15.40
2019-03-10T14:55:29.590Z,15.45
2019-03-10T14:58:03.997Z,15.47
2019-03-10T15:00:35.644Z,15.46
2019-03-10T15:03:07.250Z,15.55
2019-03-10T15:05:38.939Z,15.63
2019-03-10T15:08:12.268Z,15.55
2019-03-10T15:10:43.823Z,15.54
2019-03-10T15:13:15.460Z,15.37
2019-03-10T15:15:47.069Z,15.34
2019-03-10T15:18:18.684Z,15.23
2019-03-10T15:20:50.311Z,15.15
2019-03-10T15:23:21.940Z,15.09
2019-03-10T15:25:53.563Z,15.05
2019-03-10T15:28:25.181Z,14.96
2019-03-10T15:30:56.854Z,14.98
2019-03-10T15:33:28.433Z,15.04
2019-03-10T15:36:00.077Z,15.04
2019-03-10T15:38:34.433Z,14.94
2019-03-10T15:41:08.298Z,14.91
2019-03-10T15:43:39.931Z,14.81
2019-03-10T15:46:11.546Z,14.92
2019-03-10T15:48:49.619Z,14.84
2019-03-10T15:51:23.387Z,14.75
2019-03-10T15:53:58.823Z,14.63
2019-03-10T15:56:33.367Z,14.48
2019-03-10T15:59:10.970Z,14.46
2019-03-10T16:01:46.128Z,14.45
2019-03-10T16:04:24.691Z,14.34
2019-03-10T16:06:56.481Z,14.22
2019-03-10T16:09:28.124Z,14.14
2019-03-10T16:12:01.323Z,14.03
2019-03-10T16:14:32.915Z,14.07
2019-03-10T16:17:04.478Z,14.01
2019-03-10T16:19:42.661Z,14.01
2019-03-10T16:22:14.328Z,13.96
2019-03-10T16:24:48.737Z,13.90
2019-03-10T16:27:22.770Z,13.80
2019-03-10T16:29:59.137Z,13.78
2019-03-10T16:32:34.655Z,13.63
2019-03-10T16:35:07.955Z,13.52
2019-03-10T16:37:43.698Z,13.41
2019-03-10T16:40:18.961Z,13.25
2019-03-10T16:42:50.572Z,13.21
2019-03-10T16:45:22.380Z,13.13
2019-03-10T16:47:57.760Z,13.03
2019-03-10T16:50:29.674Z,12.99
2019-03-10T16:53:01.380Z,12.94
2019-03-10T16:55:34.801Z,12.83
2019-03-10T16:58:08.007Z,12.88
2019-03-10T17:00:40.780Z,12.73
2019-03-10T17:03:19.199Z,12.66
2019-03-10T17:05:52.010Z,12.64
2019-03-10T17:08:24.738Z,12.62
2019-03-10T17:11:00.561Z,12.60
2019-03-10T17:13:32.202Z,12.52
2019-03-10T17:16:06.437Z,12.47
2019-03-10T17:18:39.153Z,12.37
2019-03-10T17:21:14.018Z,12.35
2019-03-10T17:23:45.668Z,12.31
2019-03-10T17:26:18.400Z,12.15
2019-03-10T17:28:51.391Z,12.11
2019-03-10T17:31:23.020Z,12.04
2019-03-10T17:33:56.382Z,12.00
2019-03-10T17:36:29.608Z,11.98
2019-03-10T17:39:02.609Z,11.93
2019-03-10T17:41:39.426Z,12.00
2019-03-10T17:44:11.047Z,12.02
2019-03-10T17:46:42.651Z,11.99
2019-03-10T17:49:14.287Z,11.91
2019-03-10T17:51:57.024Z,11.86
2019-03-10T17:54:31.706Z,11.92
2019-03-10T17:57:03.296Z,11.93
2019-03-10T17:59:34.944Z,11.92
2019-03-10T18:02:09.172Z,11.87
2019-03-10T18:04:41.622Z,11.81
2019-03-10T18:07:16.257Z,11.80
2019-03-10T18:09:50.265Z,11.85
2019-03-10T18:12:21.986Z,11.84
2019-03-10T18:14:53.582Z,11.86
2019-03-10T18:17:30.592Z,11.77
2019-03-10T18:20:03.979Z,11.75
2019-03-10T18:22:37.882Z,11.75
2019-03-10T18:25:09.906Z,11.76
2019-03-10T18:27:41.591Z,11.71
2019-03-10T18:30:16.737Z,11.76
2019-03-10T18:32:48.328Z,11.76
2019-03-10T18:35:21.284Z,11.74
2019-03-10T18:37:52.873Z,11.63
2019-03-10T18:40:24.454Z,11.65
2019-03-10T18:42:56.183Z,11.63
2019-03-10T18:45:27.781Z,11.49
2019-03-10T18:47:59.357Z,11.49
2019-03-10T18:50:36.432Z,11.08
2019-03-10T18:53:09.117Z,10.30
2019-03-10T18:55:41.813Z,9.88
2019-03-10T18:58:13.407Z,9.64
2019-03-10T19:00:45.025Z,9.66
2019-03-10T19:03:17.902Z,9.46
2019-03-10T19:05:50.826Z,9.38
2019-03-10T19:08:24.748Z,9.29
2019-03-10T19:10:56.365Z,9.22
2019-03-10T19:13:27.979Z,9.11
2019-03-10T19:16:02.538Z,9.17
2019-03-10T19:18:35.879Z,9.20
2019-03-10T19:21:07.496Z,9.31
2019-03-10T19:23:39.124Z,9.43
2019-03-10T19:26:12.060Z,9.42
2019-03-10T19:28:46.308Z,9.41
2019-03-10T19:31:17.939Z,9.40
2019-03-10T19:33:50.681Z,9.27
2019-03-10T19:36:23.344Z,9.30
2019-03-10T19:38:57.701Z,9.26
2019-03-10T19:41:29.316Z,9.23
2019-03-10T19:44:01.010Z,9.23
2019-03-10T19:46:34.541Z,9.24
2019-03-10T19:49:06.156Z,9.21
2019-03-10T19:51:37.779Z,9.19
2019-03-10T19:54:11.727Z,9.10
2019-03-10T19:56:43.331Z,9.14
2019-03-10T19:59:19.297Z,9.13
2019-03-10T20:01:59.925Z,9.20
2019-03-10T20:04:34.594Z,9.12
2019-03-10T20:07:06.257Z,8.99
2019-03-10T20:09:39.963Z,9.04
2019-03-10T20:12:12.944Z,8.95
2019-03-10T20:14:46.943Z,8.87
2019-03-10T20:17:18.553Z,8.85
2019-03-10T20:19:55.576Z,8.86
2019-03-10T20:22:30.562Z,8.85
2019-03-10T20:25:03.805Z,8.91
2019-03-10T20:27:35.470Z,8.93
2019-03-10T20:30:08.887Z,9.01
2019-03-10T20:32:40.707Z,9.01
2019-03-10T20:35:12.674Z,8.94
2019-03-10T20:37:45.323Z,8.91
2019-03-10T20:40:20.337Z,8.91
2019-03-10T20:42:51.997Z,8.89
2019-03-10T20:45:28.217Z,8.92
2019-03-10T20:48:02.874Z,8.91
2019-03-10T20:50:34.486Z,8.92
2019-03-10T20:53:10.079Z,8.89
2019-03-10T20:55:43.432Z,8.84
2019-03-10T20:58:19.581Z,8.82
2019-03-10T21:00:51.020Z,8.70
2019-03-10T21:03:22.654Z,8.68
2019-03-10T21:05:54.354Z,8.79
2019-03-10T21:08:29.336Z,8.69
2019-03-10T21:11:00.905Z,8.65
2019-03-10T21:13:32.492Z,8.59
2019-03-10T21:16:05.181Z,8.59
2019-03-10T21:18:38.197Z,8.42
2019-03-10T21:21:16.207Z,8.42
2019-03-10T21:23:48.925Z,8.44
2019-03-10T21:26:28.852Z,8.42
2019-03-10T21:29:04.373Z,8.42
2019-03-10T21:31:36.069Z,8.47
2019-03-10T21:34:14.821Z,8.44
2019-03-10T21:36:47.872Z,8.49
2019-03-10T21:39:19.461Z,8.44
2019-03-10T21:41:52.980Z,8.37
2019-03-10T21:44:26.989Z,8.42
2019-03-10T21:47:01.517Z,8.41
2019-03-10T21:49:33.142Z,8.37
2019-03-10T21:52:07.080Z,8.24
2019-03-10T21:54:43.092Z,8.33
2019-03-10T21:57:14.716Z,8.32
2019-03-10T21:59:47.593Z,8.25
2019-03-10T22:02:21.316Z,8.32
2019-03-10T22:04:54.088Z,8.28
2019-03-10T22:07:28.496Z,8.36
2019-03-10T22:10:02.644Z,8.28
2019-03-10T22:12:38.814Z,8.21
2019-03-10T22:15:16.404Z,8.29
2019-03-10T22:17:53.047Z,8.21
2019-03-10T22:20:30.851Z,8.13
2019-03-10T22:23:02.430Z,8.18
2019-03-10T22:25:34.012Z,8.21
2019-03-10T22:28:05.749Z,8.18
2019-03-10T22:30:42.343Z,8.08
2019-03-10T22:33:17.031Z,8.14
2019-03-10T22:35:48.589Z,8.19
2019-03-10T22:38:20.246Z,8.19
2019-03-10T22:40:56.081Z,8.16
2019-03-10T22:43:29.126Z,8.21
2019-03-10T22:46:03.689Z,8.21
2019-03-10T22:48:38.292Z,8.20
2019-03-10T22:51:09.932Z,8.27
2019-03-10T22:53:45.368Z,8.25
2019-03-10T22:56:19.716Z,8.23
2019-03-10T22:58:58.756Z,8.21
2019-03-10T23:01:33.189Z,8.17
2019-03-10T23:04:08.590Z,8.12
2019-03-10T23:06:40.249Z,8.15
2019-03-10T23:09:15.285Z,8.11
2019-03-10T23:11:46.932Z,8.10
2019-03-10T23:14:21.309Z,8.06
2019-03-10T23:16:52.851Z,8.08
2019-03-10T23:19:24.434Z,8.08
2019-03-10T23:21:55.995Z,8.11
2019-03-10T23:24:30.893Z,8.08
2019-03-10T23:27:03.501Z,8.05
2019-03-10T23:29:35.097Z,8.03
2019-03-10T23:32:06.646Z,8.06
2019-03-10T23:34:45.830Z,8.12
2019-03-10T23:37:17.401Z,8.13
2019-03-10T23:39:50.571Z,8.16
2019-03-10T23:42:27.906Z,8.14
2019-03-10T23:45:00.864Z,8.22
2019-03-10T23:47:35.226Z,8.05
2019-03-10T23:50:07.719Z,8.04
2019-03-10T23:52:42.060Z,8.06
2019-03-10T23:55:14.093Z,7.97
2019-03-10T23:57:45.641Z,7.97
